Overview Statistics Trail Chart Weather Telemetry Raw packets
 

This is the latest recevied weather packets stored in our database for station/object K7KAR-2. If no packets are shown the sender has not sent any weather packets the latest 10 day(s).

<< 88 89 90 91 92 93 94 >>
Time Temp. Humidity Pressure Rain* Wind** Luminosity Snow
1787962675 25.56° C 40% 1013.6 hPa 0 mm - 136 W/m² -
1787962370 25.56° C 42% 1013.4 hPa 0 mm - 148 W/m² -
1787962059 25.56° C 42% 1013.4 hPa 0 mm - 166 W/m² -
1787961753 25° C 43% 1013.5 hPa 0 mm - 184 W/m² -
1787961452 25° C 44% 1013.7 hPa 0 mm - 208 W/m² -
1787961152 25° C 42% 1013.8 hPa 0 mm - 216 W/m² -
1787960851 25° C 42% 1014.1 hPa 0 mm - 186 W/m² -
1787960546 25° C 41% 1013.9 hPa 0 mm - 242 W/m² -
1787960245 25° C 45% 1013.8 hPa 0 mm - 325 W/m² -
1787959945 24.44° C 47% 1013.8 hPa 0 mm - 361 W/m² -
1787959645 23.89° C 49% 1013.8 hPa 0 mm - 342 W/m² -
1787959345 23.89° C 49% 1013.8 hPa 0 mm - 325 W/m² -
1787959040 25° C 47% 1013.7 hPa 0 mm - 211 W/m² -
1787958735 24.44° C 49% 1013.9 hPa 0 mm - 509 W/m² -
1787958430 23.89° C 51% 1014.1 hPa 0 mm - 558 W/m² -
1787958127 23.33° C 53% 1013.9 hPa 0 mm - 221 W/m² -
1787957825 22.78° C 54% 1013.9 hPa 0 mm - 143 W/m² -
1787957519 22.78° C 55% 1014 hPa 0 mm - 124 W/m² -
1787957214 22.78° C 55% 1013.9 hPa 0 mm - 121 W/m² -
1787956910 22.22° C 55% 1013.8 hPa 0 mm - 102 W/m² -
1787956609 22.22° C 56% 1013.7 hPa 0 mm - 109 W/m² -
1787956304 22.22° C 55% 1013.4 hPa 0 mm - 94 W/m² -
1787955999 22.22° C 56% 1013.5 hPa 0 mm - 85 W/m² -
1787955695 22.22° C 56% 1013.6 hPa 0 mm - 93 W/m² -
1787955391 22.22° C 56% 1013.8 hPa 0 mm - 104 W/m² -

* Rain latest hour (hover to see other rain measurements)
** Current wind speed in m/s (hover to see current wind gust speed)